createdAt,value
2022-12-15T00:00:20.854Z,100064.94
2022-12-15T00:03:06.932Z,100054.25
2022-12-15T00:05:54.080Z,100061.28
2022-12-15T00:08:41.148Z,100058.84
2022-12-15T00:11:26.887Z,100056.25
2022-12-15T00:14:12.585Z,100058.03
2022-12-15T00:16:58.215Z,100067.66
2022-12-15T00:19:44.061Z,100065.69
2022-12-15T00:22:31.483Z,100072.56
2022-12-15T00:25:17.285Z,100068.22
2022-12-15T00:28:03.301Z,100065.66
2022-12-15T00:30:49.838Z,100067.41
2022-12-15T00:33:36.158Z,100071.81
2022-12-15T00:36:21.773Z,100074.19
2022-12-15T00:38:52.343Z,100062.88
2022-12-15T00:41:21.026Z,100068.97
2022-12-15T00:43:50.032Z,100062.09
2022-12-15T00:46:36.105Z,100060.16
2022-12-15T00:49:25.187Z,100061.06
2022-12-15T00:52:11.489Z,100057.50
2022-12-15T00:54:59.033Z,100056.66
2022-12-15T00:57:44.740Z,100061.56
2022-12-15T01:00:31.808Z,100065.28
2022-12-15T01:03:17.670Z,100065.13
2022-12-15T01:06:03.785Z,100064.09
2022-12-15T01:08:49.490Z,100070.38
2022-12-15T01:11:36.698Z,100071.13
2022-12-15T01:14:22.398Z,100065.63
2022-12-15T01:17:08.421Z,100064.91
2022-12-15T01:19:54.600Z,100071.75
2022-12-15T01:22:23.503Z,100078.72
2022-12-15T01:24:52.099Z,100082.25
2022-12-15T01:27:22.088Z,100074.41
2022-12-15T01:29:50.549Z,100084.03
2022-12-15T01:32:19.191Z,100081.34
2022-12-15T01:34:47.571Z,100083.13
2022-12-15T01:37:16.162Z,100082.50
2022-12-15T01:40:02.104Z,100082.38
2022-12-15T01:42:32.386Z,100085.06
2022-12-15T01:45:33.933Z,100087.41
2022-12-15T01:48:06.381Z,100096.25
2022-12-15T01:50:39.364Z,100087.59
2022-12-15T01:53:08.532Z,100085.00
2022-12-15T01:55:38.269Z,100085.13
2022-12-15T01:58:11.534Z,100091.34
2022-12-15T02:00:40.044Z,100089.47
2022-12-15T02:03:09.445Z,100090.28
2022-12-15T02:05:39.862Z,100094.84
2022-12-15T02:08:09.687Z,100097.53
2022-12-15T02:11:02.623Z,100101.09
2022-12-15T02:13:41.598Z,100093.38
2022-12-15T02:16:20.287Z,100097.53
2022-12-15T02:18:59.981Z,100091.59
2022-12-15T02:21:33.694Z,100091.66
2022-12-15T02:24:30.221Z,100095.16
2022-12-15T02:27:28.431Z,100093.44
2022-12-15T02:30:20.021Z,100098.13
2022-12-15T02:32:57.080Z,100094.47
2022-12-15T02:35:32.957Z,100098.97
2022-12-15T02:38:02.279Z,100101.59
2022-12-15T02:40:30.737Z,100105.84
2022-12-15T02:43:03.604Z,100112.78
2022-12-15T02:45:41.493Z,100118.97
2022-12-15T02:48:20.066Z,100109.47
2022-12-15T02:51:06.990Z,100108.59
2022-12-15T02:54:08.283Z,100119.84
2022-12-15T02:56:39.762Z,100117.19
2022-12-15T02:59:12.299Z,100110.19
2022-12-15T03:01:48.216Z,100120.81
2022-12-15T03:04:19.614Z,100115.72
2022-12-15T03:07:00.602Z,100113.25
2022-12-15T03:09:29.797Z,100126.34
2022-12-15T03:11:58.324Z,100118.69
2022-12-15T03:14:27.365Z,100125.53
2022-12-15T03:16:57.559Z,100122.03
2022-12-15T03:19:26.711Z,100135.06
2022-12-15T03:21:55.228Z,100127.25
2022-12-15T03:24:23.727Z,100135.91
2022-12-15T03:26:52.321Z,100138.66
2022-12-15T03:29:21.068Z,100142.91
2022-12-15T03:31:50.322Z,100139.66
2022-12-15T03:34:20.400Z,100139.78
2022-12-15T03:36:48.918Z,100135.31
2022-12-15T03:39:17.424Z,100132.38
2022-12-15T03:41:45.929Z,100134.56
2022-12-15T03:44:14.799Z,100139.94
2022-12-15T03:46:43.353Z,100134.25
2022-12-15T03:49:11.874Z,100140.31
2022-12-15T03:51:41.803Z,100132.97
2022-12-15T03:54:10.437Z,100130.75
2022-12-15T03:56:38.831Z,100130.69
2022-12-15T03:59:07.445Z,100131.09
2022-12-15T04:01:38.253Z,100136.22
2022-12-15T04:04:07.367Z,100136.91
2022-12-15T04:06:36.101Z,100139.66
2022-12-15T04:09:07.205Z,100120.28
2022-12-15T04:11:36.157Z,100126.66
2022-12-15T04:14:04.981Z,100125.88
2022-12-15T04:16:33.866Z,100134.44
2022-12-15T04:19:19.905Z,100131.91
2022-12-15T04:21:48.887Z,100124.50
2022-12-15T04:24:36.813Z,100121.44
2022-12-15T04:27:22.905Z,100120.19
2022-12-15T04:30:09.083Z,100130.38
2022-12-15T04:32:55.328Z,100131.91
2022-12-15T04:35:41.553Z,100123.19
2022-12-15T04:38:27.759Z,100125.22
2022-12-15T04:41:15.591Z,100129.97
2022-12-15T04:44:01.632Z,100134.31
2022-12-15T04:46:47.763Z,100136.81
2022-12-15T04:49:33.774Z,100128.00
2022-12-15T04:52:20.002Z,100130.59
2022-12-15T04:55:06.481Z,100126.31
2022-12-15T04:57:54.091Z,100131.44
2022-12-15T05:00:40.270Z,100131.28
2022-12-15T05:03:27.424Z,100141.72
2022-12-15T05:06:14.140Z,100139.94
2022-12-15T05:09:00.165Z,100132.44
2022-12-15T05:11:46.561Z,100138.66
2022-12-15T05:14:34.505Z,100142.91
2022-12-15T05:17:20.817Z,100151.75
2022-12-15T05:20:07.175Z,100153.19
2022-12-15T05:22:53.805Z,100153.53
2022-12-15T05:25:41.003Z,100157.09
2022-12-15T05:28:27.027Z,100152.47
2022-12-15T05:31:14.993Z,100150.69
2022-12-15T05:33:43.981Z,100149.31
2022-12-15T05:36:12.652Z,100154.16
2022-12-15T05:38:41.689Z,100155.84
2022-12-15T05:41:10.529Z,100152.25
2022-12-15T05:43:39.203Z,100153.09
2022-12-15T05:46:09.655Z,100145.28
2022-12-15T05:48:38.457Z,100150.44
2022-12-15T05:51:08.444Z,100150.50
2022-12-15T05:53:40.969Z,100159.22
2022-12-15T05:56:11.841Z,100161.97
2022-12-15T05:58:45.383Z,100162.59
2022-12-15T06:01:19.473Z,100158.78
2022-12-15T06:03:48.307Z,100161.69
2022-12-15T06:06:17.206Z,100161.69
2022-12-15T06:08:46.278Z,100164.13
2022-12-15T06:11:21.356Z,100168.78
2022-12-15T06:13:50.441Z,100163.44
2022-12-15T06:16:22.187Z,100171.28
2022-12-15T06:18:54.558Z,100175.66
2022-12-15T06:21:25.481Z,100171.13
2022-12-15T06:23:54.328Z,100183.03
2022-12-15T06:26:25.644Z,100181.34
2022-12-15T06:28:56.932Z,100180.59
2022-12-15T06:31:28.745Z,100178.56
2022-12-15T06:34:02.069Z,100183.13
2022-12-15T06:36:32.080Z,100182.22
2022-12-15T06:39:02.021Z,100194.38
2022-12-15T06:41:31.593Z,100193.25
2022-12-15T06:44:02.054Z,100188.75
2022-12-15T06:46:33.637Z,100191.50
2022-12-15T06:49:02.930Z,100190.84
2022-12-15T06:51:32.660Z,100202.06
2022-12-15T06:54:01.959Z,100192.56
2022-12-15T06:56:34.424Z,100200.22
2022-12-15T06:59:04.811Z,100203.81
2022-12-15T07:01:36.759Z,100209.81
2022-12-15T07:04:06.379Z,100207.56
2022-12-15T07:06:38.250Z,100206.84
2022-12-15T07:09:10.687Z,100214.53
2022-12-15T07:11:39.466Z,100207.59
2022-12-15T07:14:08.884Z,100207.47
2022-12-15T07:16:39.559Z,100207.72
2022-12-15T07:19:13.628Z,100216.88
2022-12-15T07:21:43.256Z,100212.19
2022-12-15T07:24:15.341Z,100217.13
2022-12-15T07:26:49.078Z,100223.38
2022-12-15T07:29:23.050Z,100224.66
2022-12-15T07:31:56.329Z,100218.41
2022-12-15T07:34:25.601Z,100213.59
2022-12-15T07:36:54.379Z,100208.97
2022-12-15T07:39:23.344Z,100208.13
2022-12-15T07:41:52.138Z,100208.97
2022-12-15T07:44:21.508Z,100215.84
2022-12-15T07:46:50.602Z,100225.66
2022-12-15T07:49:21.989Z,100217.97
2022-12-15T07:51:50.670Z,100214.13
2022-12-15T07:54:19.543Z,100225.03
2022-12-15T07:56:50.597Z,100221.47
2022-12-15T07:59:19.945Z,100227.56
2022-12-15T08:01:49.895Z,100231.94
2022-12-15T08:04:20.705Z,100224.97
2022-12-15T08:06:49.602Z,100232.00
2022-12-15T08:09:19.684Z,100228.41
2022-12-15T08:11:48.788Z,100228.50
2022-12-15T08:14:18.767Z,100224.88
2022-12-15T08:16:48.243Z,100222.56
2022-12-15T08:19:18.602Z,100214.78
2022-12-15T08:21:49.419Z,100223.28
2022-12-15T08:24:19.730Z,100223.22
2022-12-15T08:26:50.479Z,100225.03
2022-12-15T08:32:08.539Z,100223.28
2022-12-15T08:34:37.483Z,100218.41
2022-12-15T08:37:07.828Z,100225.25
2022-12-15T08:39:36.732Z,100220.78
2022-12-15T08:42:05.841Z,100222.91
2022-12-15T08:44:34.779Z,100215.53
2022-12-15T08:47:06.222Z,100217.56
2022-12-15T08:49:35.121Z,100214.88
2022-12-15T08:52:03.949Z,100198.53
2022-12-15T08:54:34.347Z,100203.53
2022-12-15T08:57:03.833Z,100212.75
2022-12-15T08:59:32.747Z,100206.19
2022-12-15T09:02:01.746Z,100210.59
2022-12-15T09:04:30.759Z,100206.25
2022-12-15T09:06:59.707Z,100215.16
2022-12-15T09:09:28.561Z,100200.25
2022-12-15T09:11:58.864Z,100206.28
2022-12-15T09:14:29.575Z,100204.25
2022-12-15T09:16:58.587Z,100200.81
2022-12-15T09:19:28.108Z,100199.06
2022-12-15T09:21:57.087Z,100200.88
2022-12-15T09:24:34.382Z,100205.03
2022-12-15T09:27:06.182Z,100205.31
2022-12-15T09:29:35.503Z,100204.44
2022-12-15T09:32:10.498Z,100195.72
2022-12-15T09:34:43.073Z,100191.53
2022-12-15T09:37:13.963Z,100179.00
2022-12-15T09:39:42.644Z,100175.28
2022-12-15T09:42:25.645Z,100173.50
2022-12-15T09:45:04.244Z,100168.88
2022-12-15T09:47:42.007Z,100170.69
2022-12-15T09:50:13.982Z,100161.19
2022-12-15T09:52:49.049Z,100150.59
2022-12-15T09:55:22.379Z,100160.16
2022-12-15T09:57:57.173Z,100156.94
2022-12-15T10:00:31.378Z,100162.91
2022-12-15T10:03:30.440Z,100164.84
2022-12-15T10:06:18.300Z,100158.47
2022-12-15T10:08:52.144Z,100158.28
2022-12-15T10:11:50.268Z,100169.41
2022-12-15T10:14:32.458Z,100173.16
2022-12-15T10:17:08.190Z,100169.44
2022-12-15T10:19:42.426Z,100169.72
2022-12-15T10:22:14.749Z,100157.69
2022-12-15T10:25:09.146Z,100158.63
2022-12-15T10:27:58.538Z,100152.69
2022-12-15T10:30:29.003Z,100157.94
2022-12-15T10:33:03.825Z,100151.22
2022-12-15T10:35:34.831Z,100151.22
2022-12-15T10:38:05.792Z,100151.78
2022-12-15T10:40:50.239Z,100149.09
2022-12-15T10:43:40.826Z,100147.47
2022-12-15T10:46:19.026Z,100140.53
2022-12-15T10:48:50.113Z,100135.63
2022-12-15T10:51:22.570Z,100134.78
2022-12-15T10:53:53.877Z,100134.50
2022-12-15T10:56:32.875Z,100138.16
2022-12-15T10:59:07.396Z,100134.41
2022-12-15T11:01:37.859Z,100132.13
2022-12-15T11:04:27.492Z,100144.53
2022-12-15T11:06:59.009Z,100145.81
2022-12-15T11:09:34.933Z,100134.09
2022-12-15T11:12:35.715Z,100145.53
2022-12-15T11:15:04.475Z,100142.09
2022-12-15T11:17:43.284Z,100139.41
2022-12-15T11:20:22.353Z,100133.94
2022-12-15T11:22:57.368Z,100121.00
2022-12-15T11:25:36.804Z,100125.50
2022-12-15T11:28:12.898Z,100124.81
2022-12-15T11:30:48.175Z,100124.78
2022-12-15T11:33:19.982Z,100124.00
2022-12-15T11:36:10.799Z,100113.03
2022-12-15T11:38:46.595Z,100124.97
2022-12-15T11:41:32.131Z,100123.00
2022-12-15T11:44:16.231Z,100118.31
2022-12-15T11:46:52.844Z,100124.91
2022-12-15T11:49:41.167Z,100129.16
2022-12-15T11:52:17.669Z,100121.69
2022-12-15T11:54:55.230Z,100118.09
2022-12-15T11:57:54.428Z,100119.16
2022-12-15T12:00:24.544Z,100125.84
2022-12-15T12:03:27.438Z,100120.38
2022-12-15T12:06:11.339Z,100117.78
2022-12-15T12:09:14.694Z,100108.56
2022-12-15T12:11:52.954Z,100118.09
2022-12-15T12:14:33.621Z,100116.34
2022-12-15T12:17:07.679Z,100102.25
2022-12-15T12:19:43.945Z,100111.75
2022-12-15T12:22:30.195Z,100109.22
2022-12-15T12:25:04.505Z,100118.09
2022-12-15T12:27:41.348Z,100110.69
2022-12-15T12:30:16.126Z,100109.63
2022-12-15T12:32:54.747Z,100113.88
2022-12-15T12:35:33.350Z,100116.63
2022-12-15T12:38:05.382Z,100119.34
2022-12-15T12:40:50.928Z,100114.94
2022-12-15T12:43:33.798Z,100110.69
2022-12-15T12:46:10.451Z,100107.91
2022-12-15T12:48:43.261Z,100111.22
2022-12-15T12:51:21.008Z,100111.25
2022-12-15T12:53:54.021Z,100108.63
2022-12-15T12:56:41.857Z,100103.50
2022-12-15T12:59:40.520Z,100106.34
2022-12-15T13:02:50.874Z,100108.38
2022-12-15T13:05:38.706Z,100103.97
2022-12-15T13:08:30.427Z,100101.25
2022-12-15T13:11:42.252Z,100107.31
2022-12-15T13:14:25.551Z,100105.81
2022-12-15T13:17:25.375Z,100104.09
2022-12-15T13:20:21.766Z,100101.69
2022-12-15T13:22:51.860Z,100110.16
2022-12-15T13:25:43.345Z,100102.56
2022-12-15T13:28:43.124Z,100099.97
2022-12-15T13:31:35.201Z,100106.00
2022-12-15T13:34:23.500Z,100107.41
2022-12-15T13:37:36.508Z,100108.22
2022-12-15T13:40:33.452Z,100116.22
2022-12-15T13:43:12.052Z,100117.97
2022-12-15T13:45:51.405Z,100117.72
2022-12-15T13:48:29.488Z,100120.28
2022-12-15T13:51:04.997Z,100131.75
2022-12-15T13:53:43.004Z,100127.03
2022-12-15T13:56:51.463Z,100133.28
2022-12-15T13:59:30.091Z,100135.97
2022-12-15T14:02:02.174Z,100128.28
2022-12-15T14:04:33.112Z,100121.44
2022-12-15T14:07:15.211Z,100120.59
2022-12-15T14:09:45.127Z,100141.25
2022-12-15T14:12:16.729Z,100128.34
2022-12-15T14:14:50.627Z,100132.59
2022-12-15T14:17:21.657Z,100133.44
2022-12-15T14:19:53.068Z,100126.56
2022-12-15T14:22:28.602Z,100117.78
2022-12-15T14:25:03.947Z,100124.53
2022-12-15T14:27:34.626Z,100114.38
2022-12-15T14:30:23.339Z,100116.31
2022-12-15T14:32:57.750Z,100121.66
2022-12-15T14:35:33.363Z,100116.50
2022-12-15T14:38:05.200Z,100119.81
2022-12-15T14:40:37.758Z,100120.81
2022-12-15T14:43:08.662Z,100117.34
2022-12-15T14:45:37.651Z,100120.53
2022-12-15T14:48:39.905Z,100114.53
2022-12-15T14:51:02.204Z,100118.69
2022-12-15T14:53:35.182Z,100118.63
2022-12-15T14:59:20.965Z,100131.88
2022-12-15T15:01:58.472Z,100125.81
2022-12-15T15:04:33.089Z,100127.00
2022-12-15T15:07:06.237Z,100125.84
2022-12-15T15:09:40.184Z,100136.09
2022-12-15T15:12:15.409Z,100140.56
2022-12-15T15:14:45.965Z,100143.81
2022-12-15T15:17:25.801Z,100143.13
2022-12-15T15:19:58.803Z,100136.63
2022-12-15T15:22:36.011Z,100143.13
2022-12-15T15:25:26.670Z,100138.81
2022-12-15T15:28:03.323Z,100139.97
2022-12-15T15:30:43.701Z,100147.13
2022-12-15T15:33:13.701Z,100148.88
2022-12-15T15:35:44.643Z,100142.69
2022-12-15T15:38:19.740Z,100148.34
2022-12-15T15:40:56.452Z,100140.06
2022-12-15T15:43:25.996Z,100149.03
2022-12-15T15:46:01.850Z,100151.69
2022-12-15T15:48:35.231Z,100148.22
2022-12-15T15:51:06.895Z,100149.81
2022-12-15T15:53:36.973Z,100136.78
2022-12-15T15:56:07.892Z,100137.06
2022-12-15T15:58:37.257Z,100137.38
2022-12-15T16:01:12.680Z,100134.84
2022-12-15T16:03:42.695Z,100143.72
2022-12-15T16:06:18.534Z,100139.44
2022-12-15T16:08:49.103Z,100149.94
2022-12-15T16:11:18.597Z,100144.56
2022-12-15T16:13:47.151Z,100153.03
2022-12-15T16:16:20.124Z,100147.78
2022-12-15T16:18:49.483Z,100158.66
2022-12-15T16:21:21.236Z,100151.72
2022-12-15T16:23:50.539Z,100149.44
2022-12-15T16:26:24.986Z,100147.91
2022-12-15T16:28:54.774Z,100151.03
2022-12-15T16:31:35.661Z,100148.84
2022-12-15T16:34:09.612Z,100160.31
2022-12-15T16:36:40.071Z,100156.84
2022-12-15T16:39:19.680Z,100164.75
2022-12-15T16:41:48.615Z,100160.00
2022-12-15T16:44:17.206Z,100164.66
2022-12-15T16:46:46.327Z,100172.00
2022-12-15T16:49:15.388Z,100175.41
2022-12-15T16:51:52.377Z,100160.50
2022-12-15T16:54:24.219Z,100163.59
2022-12-15T16:56:53.996Z,100167.19
2022-12-15T16:59:33.396Z,100161.41
2022-12-15T17:02:17.985Z,100169.56
2022-12-15T17:04:47.283Z,100173.25
2022-12-15T17:07:20.382Z,100171.19
2022-12-15T17:09:54.353Z,100166.59
2022-12-15T17:12:29.028Z,100154.78
2022-12-15T17:14:59.156Z,100155.09
2022-12-15T17:17:31.787Z,100158.66
2022-12-15T17:20:30.037Z,100169.38
2022-12-15T17:23:05.588Z,100160.72
2022-12-15T17:28:48.473Z,100168.25
2022-12-15T17:31:35.944Z,100162.16
2022-12-15T17:34:24.724Z,100170.97
2022-12-15T17:36:54.105Z,100167.53
2022-12-15T17:39:24.609Z,100165.53
2022-12-15T17:42:02.835Z,100177.16
2022-12-15T17:44:37.858Z,100170.94
2022-12-15T17:47:09.399Z,100176.47
2022-12-15T17:49:39.250Z,100173.53
2022-12-15T17:52:16.906Z,100169.59
2022-12-15T17:54:47.109Z,100180.28
2022-12-15T17:57:15.759Z,100173.69
2022-12-15T17:59:44.394Z,100169.44
2022-12-15T18:02:14.440Z,100161.53
2022-12-15T18:04:43.872Z,100161.66
2022-12-15T18:07:21.293Z,100169.63
2022-12-15T18:09:52.591Z,100167.44
2022-12-15T18:12:24.016Z,100156.34
2022-12-15T18:14:53.737Z,100156.69
2022-12-15T18:17:22.230Z,100161.97
2022-12-15T18:19:52.039Z,100165.59
2022-12-15T18:22:22.809Z,100180.38
2022-12-15T18:24:55.467Z,100170.09
2022-12-15T18:27:25.256Z,100177.09
2022-12-15T18:29:54.515Z,100178.09
2022-12-15T18:32:25.828Z,100178.09
2022-12-15T18:34:54.857Z,100180.81
2022-12-15T18:37:25.732Z,100186.03
2022-12-15T18:39:59.495Z,100186.88
2022-12-15T18:42:32.660Z,100190.34
2022-12-15T18:45:02.426Z,100198.97
2022-12-15T18:47:30.881Z,100203.28
2022-12-15T18:49:59.352Z,100202.47
2022-12-15T18:52:32.995Z,100198.19
2022-12-15T18:55:04.923Z,100205.09
2022-12-15T18:57:36.099Z,100210.28
2022-12-15T19:00:17.777Z,100211.16
2022-12-15T19:02:46.583Z,100218.94
2022-12-15T19:05:27.853Z,100221.50
2022-12-15T19:07:59.547Z,100229.25
2022-12-15T19:10:33.632Z,100246.50
2022-12-15T19:13:02.481Z,100248.22
2022-12-15T19:15:30.956Z,100247.34
2022-12-15T19:18:17.218Z,100238.72
2022-12-15T19:21:02.931Z,100251.66
2022-12-15T19:23:31.774Z,100242.13
2022-12-15T19:26:02.188Z,100249.91
2022-12-15T19:28:30.706Z,100255.94
2022-12-15T19:30:59.178Z,100255.91
2022-12-15T19:33:27.688Z,100248.97
2022-12-15T19:35:57.593Z,100261.88
2022-12-15T19:38:28.720Z,100262.72
2022-12-15T19:40:59.038Z,100268.78
2022-12-15T19:43:29.337Z,100267.84
2022-12-15T19:45:58.107Z,100260.88
2022-12-15T19:48:26.536Z,100272.94
2022-12-15T19:50:55.739Z,100280.63
2022-12-15T19:53:27.063Z,100277.97
2022-12-15T19:55:57.082Z,100272.78
2022-12-15T19:58:30.326Z,100271.06
2022-12-15T20:01:01.089Z,100271.94
2022-12-15T20:03:31.363Z,100271.09
2022-12-15T20:06:01.923Z,100272.81
2022-12-15T20:08:34.696Z,100276.25
2022-12-15T20:11:03.820Z,100282.19
2022-12-15T20:13:33.821Z,100283.88
2022-12-15T20:16:03.004Z,100288.22
2022-12-15T20:18:33.225Z,100294.22
2022-12-15T20:21:07.884Z,100295.00
2022-12-15T20:23:43.322Z,100303.56
2022-12-15T20:26:15.535Z,100295.75
2022-12-15T20:28:46.128Z,100306.09
2022-12-15T20:31:18.567Z,100314.63
2022-12-15T20:33:51.379Z,100309.38
2022-12-15T20:36:25.535Z,100310.22
2022-12-15T20:38:57.873Z,100317.09
2022-12-15T20:41:31.602Z,100311.00
2022-12-15T20:44:02.621Z,100320.50
2022-12-15T20:46:40.826Z,100319.59
2022-12-15T20:49:17.528Z,100322.09
2022-12-15T20:51:53.802Z,100324.75
2022-12-15T20:54:26.583Z,100335.97
2022-12-15T20:56:55.337Z,100337.75
2022-12-15T20:59:25.522Z,100334.25
2022-12-15T21:01:54.789Z,100341.13
2022-12-15T21:04:27.557Z,100340.25
2022-12-15T21:06:56.710Z,100340.19
2022-12-15T21:09:25.728Z,100343.66
2022-12-15T21:11:55.424Z,100349.69
2022-12-15T21:14:25.745Z,100342.66
2022-12-15T21:16:54.327Z,100348.72
2022-12-15T21:19:23.385Z,100346.03
2022-12-15T21:21:54.819Z,100342.53
2022-12-15T21:24:26.482Z,100337.25
2022-12-15T21:26:55.347Z,100339.69
2022-12-15T21:29:28.822Z,100337.97
2022-12-15T21:31:57.611Z,100341.38
2022-12-15T21:34:25.982Z,100350.84
2022-12-15T21:36:55.636Z,100344.84
2022-12-15T21:39:29.717Z,100342.88
2022-12-15T21:42:00.323Z,100346.34
2022-12-15T21:44:30.263Z,100349.84
2022-12-15T21:46:58.908Z,100352.44
2022-12-15T21:49:26.509Z,100351.59
2022-12-15T21:51:58.091Z,100358.56
2022-12-15T21:54:31.234Z,100361.88
2022-12-15T21:57:00.256Z,100368.78
2022-12-15T21:59:32.185Z,100368.72
2022-12-15T22:02:01.671Z,100372.09
2022-12-15T22:04:32.668Z,100376.34
2022-12-15T22:07:01.706Z,100375.47
2022-12-15T22:09:30.145Z,100376.28
2022-12-15T22:11:58.893Z,100369.38
2022-12-15T22:14:30.962Z,100371.88
2022-12-15T22:17:00.741Z,100373.84
2022-12-15T22:19:29.453Z,100378.91
2022-12-15T22:21:58.040Z,100379.69
2022-12-15T22:24:26.423Z,100375.50
2022-12-15T22:26:54.945Z,100380.66
2022-12-15T22:29:25.124Z,100381.50
2022-12-15T22:31:55.205Z,100387.56
2022-12-15T22:34:27.581Z,100390.97
2022-12-15T22:36:56.227Z,100397.88
2022-12-15T22:39:25.307Z,100395.44
2022-12-15T22:41:54.179Z,100391.88
2022-12-15T22:44:25.029Z,100398.66
2022-12-15T22:46:57.241Z,100398.50
2022-12-15T22:49:30.567Z,100402.09
2022-12-15T22:51:59.485Z,100390.81
2022-12-15T22:54:30.389Z,100394.25
2022-12-15T22:57:00.865Z,100396.03
2022-12-15T22:59:34.181Z,100404.03
2022-12-15T23:02:04.869Z,100409.78
2022-12-15T23:04:34.065Z,100409.72
2022-12-15T23:07:04.829Z,100412.28
2022-12-15T23:09:33.646Z,100412.09
2022-12-15T23:12:01.097Z,100417.47
2022-12-15T23:14:43.728Z,100415.00
2022-12-15T23:17:14.936Z,100421.22
2022-12-15T23:19:45.759Z,100412.03
2022-12-15T23:22:14.715Z,100406.09
2022-12-15T23:24:43.482Z,100415.63
2022-12-15T23:27:12.730Z,100423.38
2022-12-15T23:29:41.277Z,100420.66
2022-12-15T23:32:09.834Z,100431.00
2022-12-15T23:34:39.871Z,100418.81
2022-12-15T23:37:08.578Z,100428.47
2022-12-15T23:39:37.225Z,100442.59
2022-12-15T23:42:06.138Z,100449.56
2022-12-15T23:44:34.844Z,100442.63
2022-12-15T23:47:03.449Z,100439.97
2022-12-15T23:49:32.224Z,100430.19
2022-12-15T23:52:02.408Z,100430.91
2022-12-15T23:54:31.201Z,100436.94
2022-12-15T23:56:59.741Z,100434.41
2022-12-15T23:59:28.334Z,100442.16
